sensor_id;sensor_type;location;lat;lon;timestamp;P1;durP1;ratioP1;P2;durP2;ratioP2
60867;SDS011;46702;48.370;10.794;2023-07-09T00:00:06;5.93;;;3.55;;
60867;SDS011;46702;48.370;10.794;2023-07-09T00:02:40;5.50;;;3.47;;
60867;SDS011;46702;48.370;10.794;2023-07-09T00:05:09;4.78;;;3.45;;
60867;SDS011;46702;48.370;10.794;2023-07-09T00:07:37;5.15;;;3.22;;
60867;SDS011;46702;48.370;10.794;2023-07-09T00:10:02;3.47;;;2.80;;
60867;SDS011;46702;48.370;10.794;2023-07-09T00:12:28;5.22;;;3.45;;
60867;SDS011;46702;48.370;10.794;2023-07-09T00:14:53;5.57;;;3.35;;
60867;SDS011;46702;48.370;10.794;2023-07-09T00:19:53;5.03;;;3.80;;
60867;SDS011;46702;48.370;10.794;2023-07-09T00:22:19;5.20;;;3.78;;
60867;SDS011;46702;48.370;10.794;2023-07-09T00:24:51;5.20;;;3.60;;
60867;SDS011;46702;48.370;10.794;2023-07-09T00:27:17;3.90;;;3.22;;
60867;SDS011;46702;48.370;10.794;2023-07-09T00:29:45;6.47;;;3.55;;
60867;SDS011;46702;48.370;10.794;2023-07-09T00:32:15;5.63;;;3.58;;
60867;SDS011;46702;48.370;10.794;2023-07-09T00:34:42;4.82;;;3.30;;
60867;SDS011;46702;48.370;10.794;2023-07-09T00:37:13;4.35;;;3.25;;
60867;SDS011;46702;48.370;10.794;2023-07-09T00:39:43;5.82;;;4.25;;
60867;SDS011;46702;48.370;10.794;2023-07-09T00:42:19;5.18;;;3.55;;
60867;SDS011;46702;48.370;10.794;2023-07-09T00:44:47;6.93;;;3.23;;
60867;SDS011;46702;48.370;10.794;2023-07-09T00:47:27;5.60;;;3.65;;
60867;SDS011;46702;48.370;10.794;2023-07-09T00:50:49;4.88;;;3.78;;
60867;SDS011;46702;48.370;10.794;2023-07-09T00:53:14;4.50;;;3.17;;
60867;SDS011;46702;48.370;10.794;2023-07-09T00:55:53;5.18;;;3.25;;
60867;SDS011;46702;48.370;10.794;2023-07-09T00:58:26;5.45;;;3.75;;
60867;SDS011;46702;48.370;10.794;2023-07-09T01:00:56;8.38;;;4.00;;
60867;SDS011;46702;48.370;10.794;2023-07-09T01:03:30;5.82;;;3.90;;
60867;SDS011;46702;48.370;10.794;2023-07-09T01:06:00;5.10;;;3.50;;
60867;SDS011;46702;48.370;10.794;2023-07-09T01:08:27;7.78;;;4.30;;
60867;SDS011;46702;48.370;10.794;2023-07-09T01:10:55;6.95;;;4.32;;
60867;SDS011;46702;48.370;10.794;2023-07-09T01:13:22;5.65;;;4.10;;
60867;SDS011;46702;48.370;10.794;2023-07-09T01:15:51;5.57;;;3.90;;
60867;SDS011;46702;48.370;10.794;2023-07-09T01:18:17;5.22;;;4.20;;
60867;SDS011;46702;48.370;10.794;2023-07-09T01:20:42;5.22;;;3.78;;
60867;SDS011;46702;48.370;10.794;2023-07-09T01:23:08;5.22;;;3.47;;
60867;SDS011;46702;48.370;10.794;2023-07-09T01:25:43;6.35;;;4.05;;
60867;SDS011;46702;48.370;10.794;2023-07-09T01:28:11;5.47;;;3.75;;
60867;SDS011;46702;48.370;10.794;2023-07-09T01:30:37;4.93;;;3.88;;
60867;SDS011;46702;48.370;10.794;2023-07-09T01:33:05;7.82;;;3.95;;
60867;SDS011;46702;48.370;10.794;2023-07-09T01:35:32;6.78;;;4.50;;
60867;SDS011;46702;48.370;10.794;2023-07-09T01:38:00;6.15;;;3.42;;
60867;SDS011;46702;48.370;10.794;2023-07-09T01:40:26;7.43;;;4.15;;
60867;SDS011;46702;48.370;10.794;2023-07-09T01:42:53;6.07;;;4.03;;
60867;SDS011;46702;48.370;10.794;2023-07-09T01:45:20;7.03;;;4.30;;
60867;SDS011;46702;48.370;10.794;2023-07-09T01:47:47;4.95;;;3.65;;
60867;SDS011;46702;48.370;10.794;2023-07-09T01:50:14;5.82;;;3.80;;
60867;SDS011;46702;48.370;10.794;2023-07-09T01:52:42;5.28;;;3.70;;
60867;SDS011;46702;48.370;10.794;2023-07-09T01:55:10;4.65;;;3.72;;
60867;SDS011;46702;48.370;10.794;2023-07-09T01:57:36;8.80;;;4.05;;
60867;SDS011;46702;48.370;10.794;2023-07-09T02:00:06;5.90;;;4.05;;
60867;SDS011;46702;48.370;10.794;2023-07-09T02:02:35;6.63;;;3.58;;
60867;SDS011;46702;48.370;10.794;2023-07-09T02:05:04;9.25;;;3.65;;
60867;SDS011;46702;48.370;10.794;2023-07-09T02:07:30;4.28;;;3.42;;
60867;SDS011;46702;48.370;10.794;2023-07-09T02:09:57;6.90;;;4.03;;
60867;SDS011;46702;48.370;10.794;2023-07-09T02:12:24;5.38;;;3.75;;
60867;SDS011;46702;48.370;10.794;2023-07-09T02:14:49;4.50;;;3.33;;
60867;SDS011;46702;48.370;10.794;2023-07-09T02:17:15;6.35;;;3.85;;
60867;SDS011;46702;48.370;10.794;2023-07-09T02:19:41;6.50;;;3.47;;
60867;SDS011;46702;48.370;10.794;2023-07-09T02:22:07;5.75;;;4.22;;
60867;SDS011;46702;48.370;10.794;2023-07-09T02:24:33;5.20;;;3.75;;
60867;SDS011;46702;48.370;10.794;2023-07-09T02:27:00;6.05;;;3.67;;
60867;SDS011;46702;48.370;10.794;2023-07-09T02:29:27;5.25;;;3.55;;
60867;SDS011;46702;48.370;10.794;2023-07-09T02:31:54;6.88;;;3.63;;
60867;SDS011;46702;48.370;10.794;2023-07-09T02:34:21;5.47;;;3.20;;
60867;SDS011;46702;48.370;10.794;2023-07-09T02:36:50;6.13;;;3.58;;
60867;SDS011;46702;48.370;10.794;2023-07-09T02:39:20;5.47;;;3.72;;
60867;SDS011;46702;48.370;10.794;2023-07-09T02:41:46;4.57;;;3.20;;
60867;SDS011;46702;48.370;10.794;2023-07-09T02:44:12;7.38;;;3.80;;
60867;SDS011;46702;48.370;10.794;2023-07-09T02:46:38;5.43;;;3.55;;
60867;SDS011;46702;48.370;10.794;2023-07-09T02:49:04;5.03;;;3.90;;
60867;SDS011;46702;48.370;10.794;2023-07-09T02:51:31;4.35;;;3.80;;
60867;SDS011;46702;48.370;10.794;2023-07-09T02:53:58;4.72;;;3.63;;
60867;SDS011;46702;48.370;10.794;2023-07-09T02:58:51;3.95;;;3.35;;
60867;SDS011;46702;48.370;10.794;2023-07-09T03:01:17;5.28;;;3.70;;
60867;SDS011;46702;48.370;10.794;2023-07-09T03:03:43;4.72;;;3.67;;
60867;SDS011;46702;48.370;10.794;2023-07-09T03:06:09;5.45;;;3.67;;
60867;SDS011;46702;48.370;10.794;2023-07-09T03:08:35;5.75;;;3.42;;
60867;SDS011;46702;48.370;10.794;2023-07-09T03:11:08;6.03;;;3.90;;
60867;SDS011;46702;48.370;10.794;2023-07-09T03:13:34;4.15;;;3.60;;
60867;SDS011;46702;48.370;10.794;2023-07-09T03:16:00;6.53;;;3.58;;
60867;SDS011;46702;48.370;10.794;2023-07-09T03:18:26;6.68;;;3.72;;
60867;SDS011;46702;48.370;10.794;2023-07-09T03:20:51;4.63;;;3.38;;
60867;SDS011;46702;48.370;10.794;2023-07-09T03:23:17;9.07;;;3.97;;
60867;SDS011;46702;48.370;10.794;2023-07-09T03:25:43;6.20;;;3.70;;
60867;SDS011;46702;48.370;10.794;2023-07-09T03:28:12;6.43;;;4.20;;
60867;SDS011;46702;48.370;10.794;2023-07-09T03:30:45;5.00;;;3.50;;
60867;SDS011;46702;48.370;10.794;2023-07-09T03:33:13;5.38;;;4.07;;
60867;SDS011;46702;48.370;10.794;2023-07-09T03:35:40;5.15;;;3.70;;
60867;SDS011;46702;48.370;10.794;2023-07-09T03:38:07;3.92;;;3.40;;
60867;SDS011;46702;48.370;10.794;2023-07-09T03:40:33;6.65;;;3.53;;
60867;SDS011;46702;48.370;10.794;2023-07-09T03:42:59;4.75;;;3.58;;
60867;SDS011;46702;48.370;10.794;2023-07-09T03:45:25;6.97;;;3.97;;
60867;SDS011;46702;48.370;10.794;2023-07-09T03:47:50;4.18;;;3.42;;
60867;SDS011;46702;48.370;10.794;2023-07-09T03:50:16;6.13;;;3.83;;
60867;SDS011;46702;48.370;10.794;2023-07-09T03:52:42;4.75;;;3.20;;
60867;SDS011;46702;48.370;10.794;2023-07-09T03:55:08;4.95;;;3.60;;
60867;SDS011;46702;48.370;10.794;2023-07-09T03:57:34;5.80;;;3.80;;
60867;SDS011;46702;48.370;10.794;2023-07-09T04:00:00;6.28;;;3.92;;
60867;SDS011;46702;48.370;10.794;2023-07-09T04:02:28;4.53;;;3.75;;
60867;SDS011;46702;48.370;10.794;2023-07-09T04:04:53;6.20;;;3.80;;
60867;SDS011;46702;48.370;10.794;2023-07-09T04:07:19;6.93;;;3.22;;
60867;SDS011;46702;48.370;10.794;2023-07-09T04:09:45;4.95;;;3.60;;
60867;SDS011;46702;48.370;10.794;2023-07-09T04:12:10;5.70;;;3.63;;
60867;SDS011;46702;48.370;10.794;2023-07-09T04:14:36;5.70;;;3.95;;
60867;SDS011;46702;48.370;10.794;2023-07-09T04:17:02;5.80;;;3.65;;
60867;SDS011;46702;48.370;10.794;2023-07-09T04:19:27;4.63;;;3.20;;
60867;SDS011;46702;48.370;10.794;2023-07-09T04:21:53;4.70;;;3.25;;
60867;SDS011;46702;48.370;10.794;2023-07-09T04:24:19;7.75;;;4.18;;
60867;SDS011;46702;48.370;10.794;2023-07-09T04:26:45;5.90;;;3.72;;
60867;SDS011;46702;48.370;10.794;2023-07-09T04:29:11;4.70;;;3.33;;
60867;SDS011;46702;48.370;10.794;2023-07-09T04:31:38;6.35;;;3.60;;
60867;SDS011;46702;48.370;10.794;2023-07-09T04:34:04;4.85;;;3.20;;
60867;SDS011;46702;48.370;10.794;2023-07-09T04:36:30;5.70;;;3.58;;
60867;SDS011;46702;48.370;10.794;2023-07-09T04:38:56;4.88;;;3.53;;
60867;SDS011;46702;48.370;10.794;2023-07-09T04:41:22;5.50;;;3.78;;
60867;SDS011;46702;48.370;10.794;2023-07-09T04:43:48;4.68;;;3.65;;
60867;SDS011;46702;48.370;10.794;2023-07-09T04:46:13;7.30;;;3.72;;
60867;SDS011;46702;48.370;10.794;2023-07-09T04:48:39;4.75;;;3.58;;
60867;SDS011;46702;48.370;10.794;2023-07-09T04:51:08;5.45;;;3.67;;
60867;SDS011;46702;48.370;10.794;2023-07-09T04:53:34;5.30;;;3.58;;
60867;SDS011;46702;48.370;10.794;2023-07-09T04:55:59;6.03;;;3.55;;
60867;SDS011;46702;48.370;10.794;2023-07-09T04:58:27;5.88;;;3.88;;
60867;SDS011;46702;48.370;10.794;2023-07-09T05:00:56;4.38;;;3.50;;
60867;SDS011;46702;48.370;10.794;2023-07-09T05:03:22;4.95;;;3.70;;
60867;SDS011;46702;48.370;10.794;2023-07-09T05:05:48;6.68;;;3.45;;
60867;SDS011;46702;48.370;10.794;2023-07-09T05:08:13;5.18;;;3.70;;
60867;SDS011;46702;48.370;10.794;2023-07-09T05:10:40;4.35;;;3.45;;
60867;SDS011;46702;48.370;10.794;2023-07-09T05:13:07;5.85;;;3.70;;
60867;SDS011;46702;48.370;10.794;2023-07-09T05:15:33;6.32;;;3.80;;
60867;SDS011;46702;48.370;10.794;2023-07-09T05:17:58;5.60;;;3.92;;
60867;SDS011;46702;48.370;10.794;2023-07-09T05:20:24;4.20;;;3.65;;
60867;SDS011;46702;48.370;10.794;2023-07-09T05:22:50;4.40;;;3.53;;
60867;SDS011;46702;48.370;10.794;2023-07-09T05:25:15;6.07;;;4.65;;
60867;SDS011;46702;48.370;10.794;2023-07-09T05:27:41;5.88;;;3.55;;
60867;SDS011;46702;48.370;10.794;2023-07-09T05:30:07;4.97;;;3.70;;
60867;SDS011;46702;48.370;10.794;2023-07-09T05:32:33;7.00;;;3.92;;
60867;SDS011;46702;48.370;10.794;2023-07-09T05:35:01;5.15;;;3.97;;
60867;SDS011;46702;48.370;10.794;2023-07-09T05:37:27;5.05;;;3.63;;
60867;SDS011;46702;48.370;10.794;2023-07-09T05:39:52;5.60;;;4.20;;
60867;SDS011;46702;48.370;10.794;2023-07-09T05:42:18;7.00;;;3.95;;
60867;SDS011;46702;48.370;10.794;2023-07-09T05:44:44;5.25;;;3.85;;
60867;SDS011;46702;48.370;10.794;2023-07-09T05:47:09;4.25;;;3.65;;
60867;SDS011;46702;48.370;10.794;2023-07-09T05:49:35;8.80;;;3.90;;
60867;SDS011;46702;48.370;10.794;2023-07-09T05:52:03;5.70;;;4.03;;
60867;SDS011;46702;48.370;10.794;2023-07-09T05:54:28;5.10;;;3.45;;
60867;SDS011;46702;48.370;10.794;2023-07-09T05:56:54;5.15;;;3.85;;
60867;SDS011;46702;48.370;10.794;2023-07-09T05:59:19;5.45;;;3.90;;
60867;SDS011;46702;48.370;10.794;2023-07-09T06:01:45;6.13;;;4.30;;
60867;SDS011;46702;48.370;10.794;2023-07-09T06:04:11;5.32;;;3.30;;
60867;SDS011;46702;48.370;10.794;2023-07-09T06:06:38;6.38;;;3.92;;
60867;SDS011;46702;48.370;10.794;2023-07-09T06:09:06;6.47;;;3.47;;
60867;SDS011;46702;48.370;10.794;2023-07-09T06:11:33;6.47;;;3.88;;
60867;SDS011;46702;48.370;10.794;2023-07-09T06:13:59;4.82;;;4.10;;
60867;SDS011;46702;48.370;10.794;2023-07-09T06:16:24;5.72;;;4.10;;
60867;SDS011;46702;48.370;10.794;2023-07-09T06:18:50;8.30;;;4.53;;
60867;SDS011;46702;48.370;10.794;2023-07-09T06:21:16;5.20;;;4.00;;
60867;SDS011;46702;48.370;10.794;2023-07-09T06:23:41;7.53;;;4.00;;
60867;SDS011;46702;48.370;10.794;2023-07-09T06:26:07;5.85;;;3.70;;
60867;SDS011;46702;48.370;10.794;2023-07-09T06:28:33;5.82;;;3.67;;
60867;SDS011;46702;48.370;10.794;2023-07-09T06:30:59;5.70;;;4.50;;
60867;SDS011;46702;48.370;10.794;2023-07-09T06:33:25;4.75;;;3.25;;
60867;SDS011;46702;48.370;10.794;2023-07-09T06:35:52;5.35;;;3.85;;
60867;SDS011;46702;48.370;10.794;2023-07-09T06:38:20;4.25;;;3.47;;
60867;SDS011;46702;48.370;10.794;2023-07-09T06:40:46;5.68;;;3.97;;
60867;SDS011;46702;48.370;10.794;2023-07-09T06:43:12;4.88;;;3.63;;
60867;SDS011;46702;48.370;10.794;2023-07-09T06:45:37;5.72;;;3.42;;
60867;SDS011;46702;48.370;10.794;2023-07-09T06:48:03;5.00;;;3.35;;
60867;SDS011;46702;48.370;10.794;2023-07-09T06:50:32;6.28;;;3.45;;
60867;SDS011;46702;48.370;10.794;2023-07-09T06:52:58;4.72;;;2.90;;
60867;SDS011;46702;48.370;10.794;2023-07-09T06:55:23;3.92;;;3.05;;
60867;SDS011;46702;48.370;10.794;2023-07-09T06:57:50;6.22;;;3.45;;
60867;SDS011;46702;48.370;10.794;2023-07-09T07:00:16;5.50;;;3.05;;
60867;SDS011;46702;48.370;10.794;2023-07-09T07:02:42;4.57;;;3.08;;
60867;SDS011;46702;48.370;10.794;2023-07-09T07:05:08;5.18;;;3.10;;
60867;SDS011;46702;48.370;10.794;2023-07-09T07:07:33;5.10;;;3.00;;
60867;SDS011;46702;48.370;10.794;2023-07-09T07:09:59;5.03;;;3.28;;
60867;SDS011;46702;48.370;10.794;2023-07-09T07:12:26;4.47;;;2.90;;
60867;SDS011;46702;48.370;10.794;2023-07-09T07:14:53;3.80;;;2.80;;
60867;SDS011;46702;48.370;10.794;2023-07-09T07:17:20;4.47;;;3.30;;
60867;SDS011;46702;48.370;10.794;2023-07-09T07:19:47;3.70;;;3.08;;
60867;SDS011;46702;48.370;10.794;2023-07-09T07:22:12;5.28;;;3.20;;
60867;SDS011;46702;48.370;10.794;2023-07-09T07:24:38;5.38;;;3.13;;
60867;SDS011;46702;48.370;10.794;2023-07-09T07:27:05;4.82;;;3.13;;
60867;SDS011;46702;48.370;10.794;2023-07-09T07:29:30;3.63;;;3.10;;
60867;SDS011;46702;48.370;10.794;2023-07-09T07:31:56;4.72;;;3.45;;
60867;SDS011;46702;48.370;10.794;2023-07-09T07:34:22;4.35;;;3.42;;
60867;SDS011;46702;48.370;10.794;2023-07-09T07:36:49;6.20;;;3.47;;
60867;SDS011;46702;48.370;10.794;2023-07-09T07:39:15;3.90;;;3.47;;
60867;SDS011;46702;48.370;10.794;2023-07-09T07:41:40;4.55;;;3.03;;
60867;SDS011;46702;48.370;10.794;2023-07-09T07:44:06;5.22;;;3.30;;
60867;SDS011;46702;48.370;10.794;2023-07-09T07:46:33;3.85;;;3.15;;
60867;SDS011;46702;48.370;10.794;2023-07-09T07:48:59;4.07;;;3.05;;
60867;SDS011;46702;48.370;10.794;2023-07-09T07:51:25;6.97;;;3.53;;
60867;SDS011;46702;48.370;10.794;2023-07-09T07:53:51;5.50;;;3.35;;
60867;SDS011;46702;48.370;10.794;2023-07-09T07:56:17;5.07;;;4.07;;
60867;SDS011;46702;48.370;10.794;2023-07-09T07:58:43;5.13;;;3.20;;
60867;SDS011;46702;48.370;10.794;2023-07-09T08:01:09;5.55;;;3.20;;
60867;SDS011;46702;48.370;10.794;2023-07-09T08:03:34;4.65;;;3.30;;
60867;SDS011;46702;48.370;10.794;2023-07-09T08:06:00;4.55;;;2.75;;
60867;SDS011;46702;48.370;10.794;2023-07-09T08:08:26;5.35;;;2.70;;
60867;SDS011;46702;48.370;10.794;2023-07-09T08:10:51;5.40;;;2.80;;
60867;SDS011;46702;48.370;10.794;2023-07-09T08:13:24;5.10;;;2.75;;
60867;SDS011;46702;48.370;10.794;2023-07-09T08:15:50;4.75;;;2.78;;
60867;SDS011;46702;48.370;10.794;2023-07-09T08:18:15;4.90;;;3.13;;
60867;SDS011;46702;48.370;10.794;2023-07-09T08:20:44;4.45;;;3.13;;
60867;SDS011;46702;48.370;10.794;2023-07-09T08:23:10;4.15;;;2.80;;
60867;SDS011;46702;48.370;10.794;2023-07-09T08:25:35;3.70;;;2.67;;
60867;SDS011;46702;48.370;10.794;2023-07-09T08:28:01;4.55;;;2.97;;
60867;SDS011;46702;48.370;10.794;2023-07-09T08:30:27;4.20;;;2.85;;
60867;SDS011;46702;48.370;10.794;2023-07-09T08:32:52;3.72;;;3.13;;
60867;SDS011;46702;48.370;10.794;2023-07-09T08:35:18;4.35;;;3.30;;
60867;SDS011;46702;48.370;10.794;2023-07-09T08:37:43;5.43;;;3.05;;
60867;SDS011;46702;48.370;10.794;2023-07-09T08:40:12;5.18;;;3.03;;
60867;SDS011;46702;48.370;10.794;2023-07-09T08:42:43;4.43;;;2.92;;
60867;SDS011;46702;48.370;10.794;2023-07-09T08:48:00;3.75;;;2.97;;
60867;SDS011;46702;48.370;10.794;2023-07-09T08:50:50;4.57;;;2.50;;
60867;SDS011;46702;48.370;10.794;2023-07-09T08:53:25;4.57;;;3.13;;
60867;SDS011;46702;48.370;10.794;2023-07-09T08:56:11;3.78;;;2.88;;
60867;SDS011;46702;48.370;10.794;2023-07-09T08:58:39;3.00;;;2.63;;
60867;SDS011;46702;48.370;10.794;2023-07-09T09:01:06;4.75;;;2.55;;
60867;SDS011;46702;48.370;10.794;2023-07-09T09:03:49;3.83;;;2.72;;
60867;SDS011;46702;48.370;10.794;2023-07-09T09:06:29;2.72;;;2.25;;
60867;SDS011;46702;48.370;10.794;2023-07-09T09:09:12;4.35;;;2.65;;
60867;SDS011;46702;48.370;10.794;2023-07-09T09:11:49;3.78;;;2.20;;
60867;SDS011;46702;48.370;10.794;2023-07-09T09:14:26;3.88;;;2.58;;
60867;SDS011;46702;48.370;10.794;2023-07-09T09:16:55;3.33;;;2.50;;
60867;SDS011;46702;48.370;10.794;2023-07-09T09:19:29;6.80;;;2.53;;
60867;SDS011;46702;48.370;10.794;2023-07-09T09:22:04;4.38;;;2.45;;
60867;SDS011;46702;48.370;10.794;2023-07-09T09:24:38;2.88;;;2.13;;
60867;SDS011;46702;48.370;10.794;2023-07-09T09:27:16;4.60;;;2.28;;
60867;SDS011;46702;48.370;10.794;2023-07-09T09:29:42;3.15;;;2.20;;
60867;SDS011;46702;48.370;10.794;2023-07-09T09:32:18;2.53;;;2.03;;
60867;SDS011;46702;48.370;10.794;2023-07-09T09:34:48;4.18;;;2.20;;
60867;SDS011;46702;48.370;10.794;2023-07-09T09:37:15;3.33;;;2.22;;
60867;SDS011;46702;48.370;10.794;2023-07-09T09:39:56;2.40;;;2.17;;
60867;SDS011;46702;48.370;10.794;2023-07-09T09:44:50;3.10;;;2.00;;
60867;SDS011;46702;48.370;10.794;2023-07-09T09:47:18;3.28;;;2.20;;
60867;SDS011;46702;48.370;10.794;2023-07-09T09:49:43;4.32;;;2.10;;
60867;SDS011;46702;48.370;10.794;2023-07-09T09:52:29;3.60;;;2.20;;
60867;SDS011;46702;48.370;10.794;2023-07-09T09:55:01;3.95;;;2.00;;
60867;SDS011;46702;48.370;10.794;2023-07-09T09:57:35;3.35;;;2.17;;
60867;SDS011;46702;48.370;10.794;2023-07-09T10:00:00;3.83;;;2.08;;
60867;SDS011;46702;48.370;10.794;2023-07-09T10:02:27;3.67;;;1.98;;
60867;SDS011;46702;48.370;10.794;2023-07-09T10:04:52;3.45;;;2.38;;
60867;SDS011;46702;48.370;10.794;2023-07-09T10:07:22;3.78;;;2.40;;
60867;SDS011;46702;48.370;10.794;2023-07-09T10:10:04;8.65;;;2.35;;
60867;SDS011;46702;48.370;10.794;2023-07-09T10:12:44;3.03;;;2.28;;
60867;SDS011;46702;48.370;10.794;2023-07-09T10:24:05;3.22;;;2.42;;
60867;SDS011;46702;48.370;10.794;2023-07-09T10:35:07;6.22;;;2.20;;
60867;SDS011;46702;48.370;10.794;2023-07-09T10:38:11;3.80;;;2.47;;
60867;SDS011;46702;48.370;10.794;2023-07-09T10:40:40;2.92;;;2.20;;
60867;SDS011;46702;48.370;10.794;2023-07-09T10:43:14;3.88;;;2.05;;
60867;SDS011;46702;48.370;10.794;2023-07-09T10:45:48;4.93;;;2.55;;
60867;SDS011;46702;48.370;10.794;2023-07-09T10:51:03;2.78;;;2.40;;
60867;SDS011;46702;48.370;10.794;2023-07-09T10:53:36;3.25;;;2.30;;
60867;SDS011;46702;48.370;10.794;2023-07-09T10:56:10;5.90;;;2.78;;
60867;SDS011;46702;48.370;10.794;2023-07-09T10:58:48;3.20;;;2.28;;
60867;SDS011;46702;48.370;10.794;2023-07-09T11:01:37;2.78;;;2.50;;
60867;SDS011;46702;48.370;10.794;2023-07-09T11:04:08;4.90;;;2.42;;
60867;SDS011;46702;48.370;10.794;2023-07-09T11:06:41;6.43;;;2.55;;
60867;SDS011;46702;48.370;10.794;2023-07-09T11:09:16;3.17;;;2.50;;
60867;SDS011;46702;48.370;10.794;2023-07-09T11:11:50;2.63;;;2.33;;
60867;SDS011;46702;48.370;10.794;2023-07-09T11:17:00;3.55;;;2.40;;
60867;SDS011;46702;48.370;10.794;2023-07-09T11:19:27;3.10;;;2.28;;
60867;SDS011;46702;48.370;10.794;2023-07-09T11:22:03;3.97;;;2.30;;
60867;SDS011;46702;48.370;10.794;2023-07-09T11:24:46;3.60;;;2.38;;
60867;SDS011;46702;48.370;10.794;2023-07-09T11:27:22;4.75;;;2.67;;
60867;SDS011;46702;48.370;10.794;2023-07-09T11:29:58;3.07;;;2.43;;
60867;SDS011;46702;48.370;10.794;2023-07-09T11:32:46;3.88;;;2.50;;
60867;SDS011;46702;48.370;10.794;2023-07-09T11:35:22;6.47;;;2.88;;
60867;SDS011;46702;48.370;10.794;2023-07-09T11:37:49;5.55;;;2.40;;
60867;SDS011;46702;48.370;10.794;2023-07-09T11:40:18;3.20;;;2.63;;
60867;SDS011;46702;48.370;10.794;2023-07-09T11:42:55;5.68;;;2.45;;
60867;SDS011;46702;48.370;10.794;2023-07-09T11:45:23;4.60;;;2.83;;
60867;SDS011;46702;48.370;10.794;2023-07-09T11:48:09;4.35;;;2.75;;
60867;SDS011;46702;48.370;10.794;2023-07-09T11:50:51;4.25;;;2.53;;
60867;SDS011;46702;48.370;10.794;2023-07-09T11:53:27;3.65;;;2.42;;
60867;SDS011;46702;48.370;10.794;2023-07-09T11:56:07;3.78;;;2.45;;
60867;SDS011;46702;48.370;10.794;2023-07-09T11:58:34;3.67;;;2.30;;
60867;SDS011;46702;48.370;10.794;2023-07-09T12:00:59;4.75;;;2.53;;
60867;SDS011;46702;48.370;10.794;2023-07-09T12:03:31;4.15;;;2.30;;
60867;SDS011;46702;48.370;10.794;2023-07-09T12:06:12;3.63;;;2.20;;
60867;SDS011;46702;48.370;10.794;2023-07-09T12:08:49;3.95;;;2.38;;
60867;SDS011;46702;48.370;10.794;2023-07-09T12:14:01;2.95;;;2.10;;
60867;SDS011;46702;48.370;10.794;2023-07-09T12:16:41;3.85;;;2.67;;
60867;SDS011;46702;48.370;10.794;2023-07-09T12:19:11;5.43;;;2.70;;
60867;SDS011;46702;48.370;10.794;2023-07-09T12:24:11;5.32;;;2.65;;
60867;SDS011;46702;48.370;10.794;2023-07-09T12:26:47;3.05;;;2.30;;
60867;SDS011;46702;48.370;10.794;2023-07-09T12:29:14;3.03;;;2.60;;
60867;SDS011;46702;48.370;10.794;2023-07-09T12:31:40;3.38;;;2.42;;
60867;SDS011;46702;48.370;10.794;2023-07-09T12:34:05;3.40;;;2.20;;
60867;SDS011;46702;48.370;10.794;2023-07-09T12:36:36;4.30;;;2.40;;
60867;SDS011;46702;48.370;10.794;2023-07-09T12:39:04;3.45;;;2.30;;
60867;SDS011;46702;48.370;10.794;2023-07-09T12:41:38;3.03;;;2.35;;
60867;SDS011;46702;48.370;10.794;2023-07-09T12:44:05;3.92;;;2.58;;
60867;SDS011;46702;48.370;10.794;2023-07-09T12:46:34;3.40;;;2.40;;
60867;SDS011;46702;48.370;10.794;2023-07-09T12:49:00;3.42;;;2.40;;
60867;SDS011;46702;48.370;10.794;2023-07-09T12:51:28;3.88;;;2.58;;
60867;SDS011;46702;48.370;10.794;2023-07-09T12:54:09;5.15;;;2.60;;
60867;SDS011;46702;48.370;10.794;2023-07-09T12:56:43;3.53;;;2.38;;
60867;SDS011;46702;48.370;10.794;2023-07-09T12:59:17;5.35;;;2.75;;
60867;SDS011;46702;48.370;10.794;2023-07-09T13:01:49;6.15;;;2.58;;
60867;SDS011;46702;48.370;10.794;2023-07-09T13:04:16;4.45;;;2.22;;
60867;SDS011;46702;48.370;10.794;2023-07-09T13:06:42;5.43;;;2.40;;
60867;SDS011;46702;48.370;10.794;2023-07-09T13:11:39;3.83;;;2.42;;
60867;SDS011;46702;48.370;10.794;2023-07-09T13:14:05;2.72;;;2.25;;
60867;SDS011;46702;48.370;10.794;2023-07-09T13:16:40;4.20;;;2.53;;
60867;SDS011;46702;48.370;10.794;2023-07-09T13:19:06;4.28;;;2.97;;
60867;SDS011;46702;48.370;10.794;2023-07-09T13:21:32;5.13;;;2.38;;
60867;SDS011;46702;48.370;10.794;2023-07-09T13:23:57;2.95;;;2.45;;
60867;SDS011;46702;48.370;10.794;2023-07-09T13:26:23;4.13;;;2.20;;
60867;SDS011;46702;48.370;10.794;2023-07-09T13:28:49;3.85;;;2.60;;
60867;SDS011;46702;48.370;10.794;2023-07-09T13:31:17;4.95;;;2.67;;
60867;SDS011;46702;48.370;10.794;2023-07-09T13:33:45;5.30;;;2.53;;
60867;SDS011;46702;48.370;10.794;2023-07-09T13:36:18;3.50;;;2.40;;
60867;SDS011;46702;48.370;10.794;2023-07-09T13:38:43;3.47;;;2.65;;
60867;SDS011;46702;48.370;10.794;2023-07-09T13:41:18;3.95;;;2.88;;
60867;SDS011;46702;48.370;10.794;2023-07-09T13:43:47;4.78;;;2.38;;
60867;SDS011;46702;48.370;10.794;2023-07-09T13:46:13;4.13;;;2.60;;
60867;SDS011;46702;48.370;10.794;2023-07-09T13:48:40;3.37;;;2.20;;
60867;SDS011;46702;48.370;10.794;2023-07-09T13:51:15;3.90;;;2.47;;
60867;SDS011;46702;48.370;10.794;2023-07-09T13:53:43;3.45;;;2.28;;
60867;SDS011;46702;48.370;10.794;2023-07-09T13:56:09;5.90;;;2.60;;
60867;SDS011;46702;48.370;10.794;2023-07-09T13:58:35;5.28;;;2.60;;
60867;SDS011;46702;48.370;10.794;2023-07-09T14:01:13;3.47;;;2.78;;
60867;SDS011;46702;48.370;10.794;2023-07-09T14:03:45;4.88;;;2.50;;
60867;SDS011;46702;48.370;10.794;2023-07-09T14:06:14;4.10;;;2.60;;
60867;SDS011;46702;48.370;10.794;2023-07-09T14:08:41;3.78;;;2.60;;
60867;SDS011;46702;48.370;10.794;2023-07-09T14:11:16;5.18;;;2.47;;
60867;SDS011;46702;48.370;10.794;2023-07-09T14:13:42;3.58;;;2.28;;
60867;SDS011;46702;48.370;10.794;2023-07-09T14:16:10;3.73;;;2.33;;
60867;SDS011;46702;48.370;10.794;2023-07-09T14:18:37;4.10;;;2.55;;
60867;SDS011;46702;48.370;10.794;2023-07-09T14:21:09;5.50;;;2.28;;
60867;SDS011;46702;48.370;10.794;2023-07-09T14:23:40;3.13;;;2.40;;
60867;SDS011;46702;48.370;10.794;2023-07-09T14:26:07;6.35;;;2.95;;
60867;SDS011;46702;48.370;10.794;2023-07-09T14:28:35;4.30;;;2.60;;
60867;SDS011;46702;48.370;10.794;2023-07-09T14:31:04;3.00;;;2.03;;
60867;SDS011;46702;48.370;10.794;2023-07-09T14:33:34;3.20;;;2.60;;
60867;SDS011;46702;48.370;10.794;2023-07-09T14:36:00;5.20;;;2.40;;
60867;SDS011;46702;48.370;10.794;2023-07-09T14:38:26;4.22;;;2.67;;
60867;SDS011;46702;48.370;10.794;2023-07-09T14:40:55;4.22;;;2.67;;
60867;SDS011;46702;48.370;10.794;2023-07-09T14:43:23;5.90;;;2.60;;
60867;SDS011;46702;48.370;10.794;2023-07-09T14:45:48;3.65;;;2.33;;
60867;SDS011;46702;48.370;10.794;2023-07-09T14:48:18;5.03;;;2.58;;
60867;SDS011;46702;48.370;10.794;2023-07-09T14:50:45;3.78;;;2.67;;
60867;SDS011;46702;48.370;10.794;2023-07-09T14:53:12;3.83;;;2.83;;
60867;SDS011;46702;48.370;10.794;2023-07-09T14:55:40;5.95;;;3.10;;
60867;SDS011;46702;48.370;10.794;2023-07-09T14:58:16;4.80;;;2.70;;
60867;SDS011;46702;48.370;10.794;2023-07-09T15:00:43;4.72;;;2.55;;
60867;SDS011;46702;48.370;10.794;2023-07-09T15:03:11;4.30;;;2.70;;
60867;SDS011;46702;48.370;10.794;2023-07-09T15:05:49;3.67;;;2.25;;
60867;SDS011;46702;48.370;10.794;2023-07-09T15:08:16;6.23;;;2.90;;
60867;SDS011;46702;48.370;10.794;2023-07-09T15:10:43;3.55;;;2.50;;
60867;SDS011;46702;48.370;10.794;2023-07-09T15:13:17;3.47;;;2.45;;
60867;SDS011;46702;48.370;10.794;2023-07-09T15:15:58;3.78;;;2.55;;
60867;SDS011;46702;48.370;10.794;2023-07-09T15:18:24;4.10;;;2.35;;
60867;SDS011;46702;48.370;10.794;2023-07-09T15:20:56;3.65;;;2.63;;
60867;SDS011;46702;48.370;10.794;2023-07-09T15:23:25;5.45;;;2.50;;